Northfield, MN

9:59 PM CDT on April 24, 2015 (GMT -0500)
Downtown Northfield - KYMN Radio | | Change Station
CLOSE
Current Station
Personal Weather Station
Location: Northfield, MN
Elevation: 902 ft
Nearby Weather Stations

Elev 902 ft 44.46 °N, 93.16 °W | Updated 52 seconds ago

Overcast
Overcast
43.3 °F
Feels Like 37 °F
N
11.4
Wind Variable Wind from East

Today
High -- | Low -- °F
--% Chance of Precip.
Yesterday
High -- | Low -- °F
Precip. -- in
6:14 AM 8:08 PM
Waxing Crescent, 41% visible
Pressure 29.79 in
Visibility 10.0 miles
Clouds Overcast 3100 ft
Windchill 37 °F
Dew Point 41 °F
Humidity 91%
Rainfall 0.07 in
Snow Depth Not available.
UV 0 out of 12
Pollen 9.20 out of 12
Air Quality Not available.
Flu Activity Local Activity
METAR KSYN 250255Z AUTO 12009G18KT 10SM -DZ OVC031 07/05 A2979 RMK AO2 60005 T00700047

More Conditions Fewer Conditions

Pressure 29.79 in
Visibility 10.0 miles
Clouds Overcast 3100 ft
Windchill 37 °F
Dew Point 41 °F
Humidity 91%
Rainfall 0.07 in
Snow Depth Not available.
UV 0 out of 12
Pollen 9.20 out of 12
Air Quality Not available.
Flu Activity Local Activity
METAR KSYN 250255Z AUTO 12009G18KT 10SM -DZ OVC031 07/05 A2979 RMK AO2 60005 T00700047

More Conditions Fewer Conditions

10-Day Weather Forecast

Almanac

Astronomy

Apr. 24, 2015 Rise Set
Actual Time
Civil Twilight
Nautical Twilight
Astronomical Twilight
Moon
Length of Visible Light
Length of Day
Tomorrow will be .
, % of the Moon is Illuminated

Today's Extremes

State Highs State Lows

Community

WunderPhotos

Upload Photos

1,816,576 photos uploaded!

WunderBlogs® & News

Nearby

Air Quality

  Air Quality AQ Index Pollutant
Not available.

Snow Depth

Station Depth Elevation

Earthquake Activity

City Distance Mag. Time & Date
Minimum magnitude displayed is 2.5.

Coastal Water Temperatures

Place Temperature

Stations

Nearby Weather Stations

Station Location Temp. Windchill Dew Point Humidity Wind Precip. Elev Updated Type